createdAt,value
2018-11-13T00:05:19.280Z,12.40
2018-11-13T00:07:48.422Z,12.60
2018-11-13T00:10:17.596Z,12.60
2018-11-13T00:17:44.487Z,12.00
2018-11-13T00:20:14.714Z,12.10
2018-11-13T00:22:44.410Z,12.30
2018-11-13T00:25:14.821Z,12.40
2018-11-13T00:27:44.317Z,12.50
2018-11-13T00:30:15.831Z,11.90
2018-11-13T00:32:45.293Z,12.40
2018-11-13T00:37:45.011Z,11.90
2018-11-13T00:40:14.522Z,12.00
2018-11-13T00:45:13.509Z,13.20
2018-11-13T00:47:42.646Z,12.20
2018-11-13T00:52:44.095Z,12.40
2018-11-13T00:57:42.751Z,11.90
2018-11-13T01:00:14.490Z,11.90
2018-11-13T01:02:43.845Z,11.60
2018-11-13T01:12:44.034Z,12.20
2018-11-13T01:15:15.263Z,11.50
2018-11-13T01:25:13.905Z,11.90
2018-11-13T01:36:20.235Z,11.20
2018-11-13T01:43:47.270Z,11.20
2018-11-13T01:48:45.399Z,11.70
2018-11-13T01:53:43.491Z,11.30
2018-11-13T01:58:41.600Z,11.90
2018-11-13T02:03:39.779Z,11.90
2018-11-13T02:08:37.886Z,11.50
2018-11-13T02:28:30.223Z,12.00
2018-11-13T02:33:30.995Z,11.70
2018-11-13T02:36:00.203Z,12.10
2018-11-13T02:40:58.300Z,11.70
2018-11-13T02:45:56.390Z,12.10
2018-11-13T02:50:54.486Z,11.70
2018-11-13T02:58:21.531Z,12.20
2018-11-13T03:00:50.685Z,11.90
2018-11-13T03:05:48.821Z,12.20
2018-11-13T03:10:46.965Z,12.80
2018-11-13T03:20:43.111Z,12.00
2018-11-13T03:30:39.095Z,12.30
2018-11-13T03:33:08.273Z,12.30
2018-11-13T03:35:37.479Z,11.80
2018-11-13T03:40:35.633Z,12.20
2018-11-13T03:45:34.166Z,12.20
2018-11-13T03:57:59.976Z,12.10
2018-11-13T04:02:58.115Z,12.20
2018-11-13T04:10:25.547Z,12.20
2018-11-13T04:12:54.710Z,12.10
2018-11-13T04:15:24.983Z,12.80
2018-11-13T04:20:23.913Z,11.90
2018-11-13T04:22:53.101Z,11.70
2018-11-13T04:27:51.262Z,12.30
2018-11-13T04:30:20.447Z,12.20
2018-11-13T04:33:00.523Z,12.30
2018-11-13T04:35:29.683Z,11.90
2018-11-13T04:37:59.138Z,12.10
2018-11-13T04:40:29.111Z,12.50
2018-11-13T04:45:27.217Z,12.00
2018-11-13T04:55:23.354Z,12.00
2018-11-13T05:00:23.672Z,12.30
2018-11-13T05:05:22.605Z,11.90
2018-11-13T05:07:53.065Z,12.30
2018-11-13T05:10:22.427Z,12.30
2018-11-13T05:15:20.641Z,12.20
2018-11-13T05:20:19.094Z,12.30
2018-11-13T05:27:47.684Z,11.80
2018-11-13T05:35:18.461Z,12.60
2018-11-13T05:40:19.435Z,12.30
2018-11-13T05:42:48.614Z,12.20
2018-11-13T05:47:48.416Z,12.60
2018-11-13T05:52:48.795Z,12.40
2018-11-13T05:57:47.303Z,11.90
2018-11-13T06:00:32.243Z,12.60
2018-11-13T06:03:02.103Z,12.40
2018-11-13T06:05:31.671Z,12.20
2018-11-13T06:08:00.858Z,12.30
2018-11-13T06:15:28.772Z,12.00
2018-11-13T06:25:24.836Z,12.10
2018-11-13T06:30:24.368Z,12.10
2018-11-13T06:32:53.916Z,11.50
2018-11-13T06:35:23.238Z,12.00
2018-11-13T06:47:50.077Z,11.80
2018-11-13T07:01:18.143Z,11.40
2018-11-13T07:06:16.232Z,11.60
2018-11-13T07:18:41.208Z,11.70
2018-11-13T07:23:39.339Z,12.10
2018-11-13T07:28:37.506Z,12.20
2018-11-13T07:31:06.671Z,11.90
2018-11-13T07:36:05.120Z,11.90
2018-11-13T07:41:03.333Z,12.30
2018-11-13T07:46:01.485Z,12.20
2018-11-13T07:48:30.731Z,12.50
2018-11-13T07:53:28.946Z,12.40
2018-11-13T07:55:58.112Z,12.40
2018-11-13T07:58:27.358Z,12.20
2018-11-13T08:08:32.215Z,12.40
2018-11-13T08:11:02.479Z,12.40
2018-11-13T08:20:59.535Z,12.60
2018-11-13T08:23:28.703Z,12.50
2018-11-13T08:25:58.168Z,12.30
2018-11-13T08:30:56.520Z,13.20
2018-11-13T08:33:25.694Z,12.70
2018-11-13T08:35:54.870Z,12.30
2018-11-13T08:38:24.036Z,12.70
2018-11-13T08:40:53.211Z,12.60
2018-11-13T08:43:22.413Z,12.40
2018-11-13T08:48:20.799Z,12.30
2018-11-13T09:03:15.420Z,12.70
2018-11-13T09:05:44.790Z,12.60
2018-11-13T09:13:11.839Z,12.50
2018-11-13T09:15:41.028Z,12.60
2018-11-13T09:20:39.603Z,13.30
2018-11-13T09:23:08.934Z,12.60
2018-11-13T09:28:07.248Z,13.00
2018-11-13T09:33:05.793Z,12.80
2018-11-13T09:57:56.194Z,13.10
2018-11-13T10:05:26.281Z,13.00
2018-11-13T10:10:25.478Z,12.70
2018-11-13T10:12:54.743Z,12.80
2018-11-13T10:20:23.351Z,12.90
2018-11-13T10:22:53.705Z,12.60
2018-11-13T10:32:52.043Z,12.80
2018-11-13T10:35:22.564Z,12.70
2018-11-13T10:37:51.859Z,12.80
2018-11-13T10:40:21.959Z,13.40
2018-11-13T10:47:51.341Z,12.60
2018-11-13T10:52:51.192Z,13.10
2018-11-13T10:57:49.502Z,13.00
2018-11-13T11:07:57.730Z,12.50
2018-11-13T11:12:56.031Z,13.20
2018-11-13T11:22:52.204Z,12.50
2018-11-13T11:32:48.330Z,12.80
2018-11-13T11:37:46.540Z,12.80
2018-11-13T11:42:44.636Z,12.30
2018-11-13T11:50:13.937Z,12.60
2018-11-13T11:52:43.279Z,12.70
2018-11-13T11:55:13.239Z,12.40
2018-11-13T11:57:42.420Z,12.70
2018-11-13T12:02:43.260Z,12.60
2018-11-13T12:05:12.524Z,12.10
2018-11-13T12:07:41.846Z,12.70
2018-11-13T12:10:12.922Z,12.40
2018-11-13T12:15:12.459Z,12.50
2018-11-13T12:20:12.332Z,12.80
2018-11-13T12:30:15.071Z,13.80
2018-11-13T12:32:44.837Z,13.00
2018-11-13T12:37:44.005Z,12.70
2018-11-13T12:40:14.881Z,13.10
2018-11-13T12:42:46.462Z,13.30
2018-11-13T12:52:42.634Z,13.00
2018-11-13T12:55:18.732Z,12.80
2018-11-13T12:57:47.979Z,12.80
2018-11-13T13:02:50.238Z,12.60
2018-11-13T13:15:17.400Z,13.00
2018-11-13T13:17:46.814Z,12.40
2018-11-13T13:30:20.420Z,13.00
2018-11-13T13:32:49.947Z,13.10
2018-11-13T13:36:07.147Z,12.70
2018-11-13T13:38:37.649Z,12.90
2018-11-13T13:51:03.254Z,12.80
2018-11-13T14:00:59.657Z,13.10
2018-11-13T14:05:57.812Z,12.90
2018-11-13T14:08:27.068Z,12.70
2018-11-13T14:10:56.212Z,12.30
2018-11-13T14:13:25.394Z,12.60
2018-11-13T14:15:54.554Z,12.50
2018-11-13T14:23:21.824Z,11.80
2018-11-13T14:33:17.921Z,12.20
2018-11-13T14:38:16.081Z,12.00
2018-11-13T14:45:44.865Z,12.20
2018-11-13T14:50:43.569Z,12.10
2018-11-13T14:58:13.783Z,12.00
2018-11-13T15:00:43.324Z,12.10
2018-11-13T15:05:42.835Z,12.40
2018-11-13T15:15:46.740Z,12.30
2018-11-13T15:20:45.721Z,12.10
2018-11-13T15:23:15.094Z,12.10
2018-11-13T15:28:13.668Z,11.70
2018-11-13T15:30:45.054Z,12.20
2018-11-13T15:33:17.284Z,11.90
2018-11-13T15:38:15.387Z,11.60
2018-11-13T15:43:13.682Z,11.50
2018-11-13T16:00:40.663Z,11.30
2018-11-13T16:08:26.902Z,11.30
2018-11-13T16:10:56.083Z,11.30
2018-11-13T16:15:54.202Z,10.90
2018-11-13T16:23:22.971Z,10.90
2018-11-13T16:28:21.106Z,10.60
2018-11-13T16:30:50.502Z,10.50
2018-11-13T16:33:19.641Z,11.20
2018-11-13T16:35:48.841Z,10.80
2018-11-13T16:45:44.907Z,10.90
2018-11-13T16:50:43.301Z,10.60
2018-11-13T16:55:46.699Z,11.00
2018-11-13T16:58:16.653Z,10.90
2018-11-13T17:00:45.889Z,11.20
2018-11-13T17:03:15.009Z,11.50
2018-11-13T17:05:44.230Z,11.10
2018-11-13T17:08:13.355Z,11.10
2018-11-13T17:18:10.460Z,11.70
2018-11-13T17:20:39.706Z,11.60
2018-11-13T17:28:08.539Z,11.00
2018-11-13T17:30:38.035Z,10.50
2018-11-13T17:38:06.697Z,10.90
2018-11-13T17:40:36.723Z,11.10
2018-11-13T17:45:37.604Z,10.40
2018-11-13T17:50:38.919Z,10.60
2018-11-13T17:58:10.101Z,10.80
2018-11-13T18:03:11.258Z,10.30
2018-11-13T18:10:40.575Z,10.10
2018-11-13T18:15:39.175Z,10.40
2018-11-13T18:20:38.932Z,10.00
2018-11-13T18:25:37.432Z,10.20
2018-11-13T18:28:07.241Z,9.90
2018-11-13T18:35:37.351Z,10.20
2018-11-13T18:40:37.153Z,10.10
2018-11-13T18:45:36.881Z,10.00
2018-11-13T18:58:04.063Z,9.60
2018-11-13T19:03:06.246Z,9.70
2018-11-13T19:15:41.216Z,9.80
2018-11-13T19:18:10.793Z,9.50
2018-11-13T19:23:08.952Z,9.40
2018-11-13T19:30:36.453Z,9.50
2018-11-13T19:35:34.835Z,9.60
2018-11-13T19:40:34.074Z,9.80
2018-11-13T19:43:04.642Z,9.50
2018-11-13T19:48:02.776Z,9.20
2018-11-13T19:55:31.591Z,9.70
2018-11-13T19:58:00.832Z,9.90
2018-11-13T20:00:31.991Z,9.40
2018-11-13T20:03:02.510Z,9.20
2018-11-13T20:05:32.318Z,9.50
2018-11-13T20:08:01.614Z,9.30
2018-11-13T20:15:31.642Z,9.00
2018-11-13T20:20:30.799Z,9.60
2018-11-13T20:30:32.238Z,9.40
2018-11-13T20:35:30.311Z,9.20
2018-11-13T20:43:00.323Z,9.10
2018-11-13T20:47:58.452Z,9.10
2018-11-13T20:57:56.121Z,9.20
2018-11-13T21:00:32.596Z,9.20
2018-11-13T21:05:30.759Z,8.80
2018-11-13T21:13:01.188Z,8.90
2018-11-13T21:15:30.387Z,9.30
2018-11-13T21:17:59.591Z,9.20
2018-11-13T21:20:28.877Z,9.30
2018-11-13T21:25:27.667Z,9.40
2018-11-13T21:27:59.170Z,9.20
2018-11-13T21:32:57.343Z,9.20
2018-11-13T21:37:56.580Z,10.00
2018-11-13T21:40:26.788Z,9.40
2018-11-13T21:45:26.532Z,9.00
2018-11-13T21:55:24.875Z,9.60
2018-11-13T21:57:54.160Z,9.40
2018-11-13T22:05:28.799Z,9.30
2018-11-13T22:07:57.971Z,9.40
2018-11-13T22:12:56.082Z,9.50
2018-11-13T22:20:24.907Z,9.20
2018-11-13T22:32:55.146Z,9.30
2018-11-13T22:35:24.606Z,8.80
2018-11-13T22:40:26.828Z,9.30
2018-11-13T22:45:26.473Z,9.10
2018-11-13T22:47:56.088Z,9.40
2018-11-13T22:50:27.948Z,9.40
2018-11-13T22:52:57.329Z,9.60
2018-11-13T22:57:56.970Z,8.70
2018-11-13T23:03:10.961Z,8.60
2018-11-13T23:05:40.691Z,8.90
2018-11-13T23:08:11.085Z,9.20
2018-11-13T23:15:40.169Z,8.50
2018-11-13T23:18:09.660Z,9.40
2018-11-13T23:23:07.894Z,8.40
2018-11-13T23:28:06.438Z,9.00
2018-11-13T23:30:35.624Z,8.90
2018-11-13T23:33:05.220Z,8.30
2018-11-13T23:35:37.381Z,8.50
2018-11-13T23:38:06.665Z,8.70
2018-11-13T23:43:05.021Z,8.70
2018-11-13T23:48:03.213Z,8.10
2018-11-13T23:50:32.475Z,8.60
2018-11-13T23:55:30.856Z,8.60
